TAP1212 LPMA-LPPT
Flight info
| Callsign | TAP1212 |
|---|---|
| Flight time | N/A |
| Altitude | 40000 |
| Route | DEGUN DCT NARTA DCT ESUTI |
| Aircraft | A343/H-SDE2E3FGHIJ4J5M1RWXY/LB1D1 |
Departure
| Time | 2026-05-05 15:09 |
|---|---|
| Airport | Cristiano Ronaldo International Airport (LPMA) |
Arrival
| Time | N/A |
|---|---|
| Airport | Lisbon Humberto Delgado Airport (LPPT) |
| Time | Latitude | Longitude | Altitude | Speed | Heading |
|---|---|---|---|---|---|
| 2026-05-05 14:11 | 32.69520 | -16.77447 | 181 ft | 0 kts | 138° |
| 2026-05-05 14:37 | 32.69535 | -16.77462 | 193 ft | 4 kts | 144° |
| 2026-05-05 14:38 | 32.69552 | -16.77478 | 198 ft | 4 kts | 143° |
| 2026-05-05 14:38 | 32.69574 | -16.77490 | 180 ft | 4 kts | 191° |
| 2026-05-05 14:38 | 32.69596 | -16.77476 | 180 ft | 4 kts | 225° |
| 2026-05-05 14:38 | 32.69614 | -16.77454 | 180 ft | 4 kts | 226° |
| 2026-05-05 14:39 | 32.69620 | -16.77447 | 180 ft | 3 kts | 226° |
| 2026-05-05 14:41 | 32.69616 | -16.77451 | 180 ft | 3 kts | 226° |
| 2026-05-05 14:41 | 32.69581 | -16.77495 | 180 ft | 14 kts | 226° |
| 2026-05-05 14:41 | 32.69494 | -16.77603 | 180 ft | 21 kts | 226° |
| 2026-05-05 14:42 | 32.69416 | -16.77701 | 180 ft | 11 kts | 226° |
| 2026-05-05 14:42 | 32.69378 | -16.77746 | 180 ft | 5 kts | 225° |
| 2026-05-05 14:42 | 32.69342 | -16.77789 | 180 ft | 11 kts | 225° |
| 2026-05-05 14:42 | 32.69291 | -16.77885 | 180 ft | 17 kts | 258° |
| 2026-05-05 14:43 | 32.69277 | -16.78027 | 181 ft | 18 kts | 252° |
| 2026-05-05 14:43 | 32.69254 | -16.78072 | 181 ft | 17 kts | 231° |
| 2026-05-05 14:43 | 32.69158 | -16.78178 | 181 ft | 21 kts | 223° |
| 2026-05-05 14:43 | 32.69047 | -16.78304 | 181 ft | 22 kts | 224° |
| 2026-05-05 14:44 | 32.68935 | -16.78395 | 181 ft | 19 kts | 197° |
| 2026-05-05 14:44 | 32.68897 | -16.78405 | 181 ft | 0 kts | 185° |
| 2026-05-05 14:45 | 32.69520 | -16.77447 | 181 ft | 2 kts | 138° |
| 2026-05-05 14:53 | 32.69522 | -16.77449 | 180 ft | 3 kts | 138° |
| 2026-05-05 14:53 | 32.69543 | -16.77468 | 180 ft | 4 kts | 139° |
| 2026-05-05 14:53 | 32.69560 | -16.77485 | 180 ft | 4 kts | 156° |
| 2026-05-05 14:53 | 32.69583 | -16.77488 | 180 ft | 4 kts | 209° |
| 2026-05-05 14:54 | 32.69602 | -16.77469 | 180 ft | 4 kts | 226° |
| 2026-05-05 14:54 | 32.69619 | -16.77448 | 180 ft | 2 kts | 226° |
| 2026-05-05 14:54 | 32.69620 | -16.77447 | 180 ft | 4 kts | 226° |
| 2026-05-05 14:56 | 32.69612 | -16.77456 | 180 ft | 5 kts | 226° |
| 2026-05-05 14:56 | 32.69563 | -16.77518 | 180 ft | 15 kts | 226° |
| 2026-05-05 14:57 | 32.69475 | -16.77627 | 180 ft | 20 kts | 225° |
| 2026-05-05 14:57 | 32.69376 | -16.77748 | 180 ft | 21 kts | 226° |
| 2026-05-05 14:57 | 32.69294 | -16.77889 | 180 ft | 21 kts | 256° |
| 2026-05-05 14:57 | 32.69265 | -16.78052 | 181 ft | 18 kts | 247° |
| 2026-05-05 14:58 | 32.69210 | -16.78142 | 181 ft | 11 kts | 219° |
| 2026-05-05 14:58 | 32.69150 | -16.78197 | 181 ft | 9 kts | 219° |
| 2026-05-05 14:58 | 32.69090 | -16.78262 | 181 ft | 16 kts | 223° |
| 2026-05-05 14:58 | 32.68995 | -16.78365 | 181 ft | 15 kts | 217° |
| 2026-05-05 14:59 | 32.68939 | -16.78394 | 181 ft | 7 kts | 197° |
| 2026-05-05 14:59 | 32.68900 | -16.78416 | 181 ft | 5 kts | 215° |
| 2026-05-05 14:59 | 32.68890 | -16.78428 | 181 ft | 0 kts | 229° |
| 2026-05-05 14:59 | 32.68885 | -16.78437 | 181 ft | 2 kts | 235° |
| 2026-05-05 15:00 | 32.68880 | -16.78454 | 181 ft | 0 kts | 251° |
| 2026-05-05 15:00 | 32.68879 | -16.78458 | 181 ft | 0 kts | 250° |
| 2026-05-05 15:01 | 32.68878 | -16.78459 | 181 ft | 1 kts | 250° |
| 2026-05-05 15:01 | 32.68878 | -16.78461 | 181 ft | 0 kts | 251° |
| 2026-05-05 15:01 | 32.68882 | -16.78447 | 181 ft | 2 kts | 275° |
| 2026-05-05 15:02 | 32.68880 | -16.78432 | 181 ft | 0 kts | 303° |
| 2026-05-05 15:02 | 32.68886 | -16.78439 | 181 ft | 7 kts | 309° |
| 2026-05-05 15:02 | 32.68905 | -16.78460 | 181 ft | 1 kts | 322° |
| 2026-05-05 15:02 | 32.68911 | -16.78465 | 181 ft | 4 kts | 326° |
| 2026-05-05 15:03 | 32.68912 | -16.78466 | 181 ft | 0 kts | 326° |
| 2026-05-05 15:04 | 32.68915 | -16.78469 | 181 ft | 0 kts | 323° |
| 2026-05-05 15:05 | 32.68916 | -16.78470 | 181 ft | 2 kts | 322° |
| 2026-05-05 15:05 | 32.68932 | -16.78487 | 181 ft | 4 kts | 318° |
| 2026-05-05 15:06 | 32.68928 | -16.78483 | 181 ft | 2 kts | 339° |
| 2026-05-05 15:06 | 32.68915 | -16.78478 | 181 ft | 2 kts | 8° |
| 2026-05-05 15:06 | 32.68902 | -16.78481 | 181 ft | 2 kts | 38° |
| 2026-05-05 15:06 | 32.68901 | -16.78482 | 181 ft | 0 kts | 41° |
| 2026-05-05 15:08 | 32.68946 | -16.78433 | 181 ft | 32 kts | 43° |
| 2026-05-05 15:08 | 32.69239 | -16.78089 | 181 ft | 88 kts | 44° |
| 2026-05-05 15:08 | 32.69802 | -16.77425 | 202 ft | 134 kts | 41° |
| 2026-05-05 15:09 | 32.70471 | -16.76580 | 631 ft | 147 kts | 47° |
| 2026-05-05 15:09 | 32.70799 | -16.75380 | 1109 ft | 168 kts | 95° |
| 2026-05-05 15:09 | 32.70555 | -16.74114 | 1550 ft | 145 kts | 88° |